sensor_id;sensor_type;location;lat;lon;timestamp;pressure;altitude;pressure_sealevel;temperature;humidity
76011;BME280;64701;43.536;1.478;2024-01-15T00:01:59;99141.25;;;10.47;100.00
76011;BME280;64701;43.536;1.478;2024-01-15T00:04:24;99137.78;;;10.47;100.00
76011;BME280;64701;43.536;1.478;2024-01-15T00:06:49;99130.66;;;10.47;100.00
76011;BME280;64701;43.536;1.478;2024-01-15T00:09:15;99131.66;;;10.46;100.00
76011;BME280;64701;43.536;1.478;2024-01-15T00:11:41;99121.69;;;10.42;100.00
76011;BME280;64701;43.536;1.478;2024-01-15T00:14:06;99117.59;;;10.39;100.00
76011;BME280;64701;43.536;1.478;2024-01-15T00:16:31;99124.72;;;10.39;100.00
76011;BME280;64701;43.536;1.478;2024-01-15T00:18:56;99112.72;;;10.36;100.00
76011;BME280;64701;43.536;1.478;2024-01-15T00:21:22;99109.03;;;10.37;100.00
76011;BME280;64701;43.536;1.478;2024-01-15T00:23:47;99104.56;;;10.38;100.00
76011;BME280;64701;43.536;1.478;2024-01-15T00:26:12;99106.16;;;10.32;100.00
76011;BME280;64701;43.536;1.478;2024-01-15T00:28:37;99111.06;;;10.29;100.00
76011;BME280;64701;43.536;1.478;2024-01-15T00:31:03;99109.41;;;10.28;100.00
76011;BME280;64701;43.536;1.478;2024-01-15T00:33:29;99116.34;;;10.29;100.00
76011;BME280;64701;43.536;1.478;2024-01-15T00:35:54;99109.03;;;10.31;100.00
76011;BME280;64701;43.536;1.478;2024-01-15T00:38:19;99100.06;;;10.32;100.00
76011;BME280;64701;43.536;1.478;2024-01-15T00:40:45;99101.69;;;10.33;100.00
76011;BME280;64701;43.536;1.478;2024-01-15T00:43:10;99098.84;;;10.34;100.00
76011;BME280;64701;43.536;1.478;2024-01-15T00:45:35;99099.69;;;10.35;100.00
76011;BME280;64701;43.536;1.478;2024-01-15T00:48:01;99096.63;;;10.38;100.00
76011;BME280;64701;43.536;1.478;2024-01-15T00:50:26;99100.91;;;10.39;100.00
76011;BME280;64701;43.536;1.478;2024-01-15T00:52:51;99097.88;;;10.42;100.00
76011;BME280;64701;43.536;1.478;2024-01-15T00:55:17;99090.31;;;10.39;100.00
76011;BME280;64701;43.536;1.478;2024-01-15T00:57:42;99096.41;;;10.39;100.00
76011;BME280;64701;43.536;1.478;2024-01-15T01:00:07;99103.72;;;10.37;100.00
76011;BME280;64701;43.536;1.478;2024-01-15T01:02:34;99101.09;;;10.37;100.00
76011;BME280;64701;43.536;1.478;2024-01-15T01:04:59;99106.59;;;10.36;100.00
76011;BME280;64701;43.536;1.478;2024-01-15T01:07:24;99096.00;;;10.36;100.00
76011;BME280;64701;43.536;1.478;2024-01-15T01:09:49;99089.91;;;10.35;100.00
76011;BME280;64701;43.536;1.478;2024-01-15T01:12:16;99099.47;;;10.36;100.00
76011;BME280;64701;43.536;1.478;2024-01-15T01:14:41;99093.97;;;10.38;100.00
76011;BME280;64701;43.536;1.478;2024-01-15T01:17:07;99089.09;;;10.35;100.00
76011;BME280;64701;43.536;1.478;2024-01-15T01:19:32;99088.06;;;10.36;100.00
76011;BME280;64701;43.536;1.478;2024-01-15T01:21:57;99080.53;;;10.33;100.00
76011;BME280;64701;43.536;1.478;2024-01-15T01:24:22;99069.56;;;10.36;100.00
76011;BME280;64701;43.536;1.478;2024-01-15T01:26:48;99076.69;;;10.35;100.00
76011;BME280;64701;43.536;1.478;2024-01-15T01:29:14;99067.50;;;10.38;100.00
76011;BME280;64701;43.536;1.478;2024-01-15T01:31:42;99067.13;;;10.41;100.00
76011;BME280;64701;43.536;1.478;2024-01-15T01:34:08;99070.34;;;10.43;100.00
76011;BME280;64701;43.536;1.478;2024-01-15T01:36:33;99059.78;;;10.43;100.00
76011;BME280;64701;43.536;1.478;2024-01-15T01:38:58;99054.47;;;10.43;100.00
76011;BME280;64701;43.536;1.478;2024-01-15T01:41:23;99050.00;;;10.43;100.00
76011;BME280;64701;43.536;1.478;2024-01-15T01:43:49;99046.34;;;10.44;100.00
76011;BME280;64701;43.536;1.478;2024-01-15T01:46:14;99049.81;;;10.45;100.00
76011;BME280;64701;43.536;1.478;2024-01-15T01:48:40;99039.41;;;10.43;100.00
76011;BME280;64701;43.536;1.478;2024-01-15T01:51:05;99040.22;;;10.44;100.00
76011;BME280;64701;43.536;1.478;2024-01-15T01:53:33;99037.59;;;10.44;100.00
76011;BME280;64701;43.536;1.478;2024-01-15T01:55:59;99038.59;;;10.43;100.00
76011;BME280;64701;43.536;1.478;2024-01-15T01:58:26;99046.34;;;10.44;100.00
76011;BME280;64701;43.536;1.478;2024-01-15T02:00:52;99040.84;;;10.46;100.00
76011;BME280;64701;43.536;1.478;2024-01-15T02:03:18;99039.03;;;10.46;100.00
76011;BME280;64701;43.536;1.478;2024-01-15T02:05:43;99041.03;;;10.44;100.00
76011;BME280;64701;43.536;1.478;2024-01-15T02:08:11;99043.50;;;10.46;100.00
76011;BME280;64701;43.536;1.478;2024-01-15T02:10:36;99046.97;;;10.46;100.00
76011;BME280;64701;43.536;1.478;2024-01-15T02:13:02;99041.88;;;10.45;100.00
76011;BME280;64701;43.536;1.478;2024-01-15T02:15:27;99047.16;;;10.45;100.00
76011;BME280;64701;43.536;1.478;2024-01-15T02:20:24;99054.09;;;10.46;100.00
76011;BME280;64701;43.536;1.478;2024-01-15T02:22:50;99061.00;;;10.47;100.00
76011;BME280;64701;43.536;1.478;2024-01-15T02:25:15;99062.66;;;10.48;100.00
76011;BME280;64701;43.536;1.478;2024-01-15T02:27:40;99060.59;;;10.50;100.00
76011;BME280;64701;43.536;1.478;2024-01-15T02:30:06;99061.59;;;10.49;100.00
76011;BME280;64701;43.536;1.478;2024-01-15T02:32:33;99054.47;;;10.49;100.00
76011;BME280;64701;43.536;1.478;2024-01-15T02:34:58;99039.41;;;10.50;100.00
76011;BME280;64701;43.536;1.478;2024-01-15T02:37:23;99046.97;;;10.53;100.00
76011;BME280;64701;43.536;1.478;2024-01-15T02:39:49;99048.59;;;10.54;100.00
76011;BME280;64701;43.536;1.478;2024-01-15T02:42:14;99035.38;;;10.54;100.00
76011;BME280;64701;43.536;1.478;2024-01-15T02:44:39;99019.50;;;10.54;100.00
76011;BME280;64701;43.536;1.478;2024-01-15T02:47:04;99017.44;;;10.56;100.00
76011;BME280;64701;43.536;1.478;2024-01-15T02:49:30;99009.72;;;10.54;100.00
76011;BME280;64701;43.536;1.478;2024-01-15T02:51:57;99016.84;;;10.54;100.00
76011;BME280;64701;43.536;1.478;2024-01-15T02:54:22;99013.38;;;10.53;100.00
76011;BME280;64701;43.536;1.478;2024-01-15T02:56:47;99023.16;;;10.53;100.00
76011;BME280;64701;43.536;1.478;2024-01-15T02:59:13;99023.97;;;10.53;100.00
76011;BME280;64701;43.536;1.478;2024-01-15T03:01:38;99022.34;;;10.52;100.00
76011;BME280;64701;43.536;1.478;2024-01-15T03:04:03;99017.22;;;10.51;100.00
76011;BME280;64701;43.536;1.478;2024-01-15T03:06:28;99017.44;;;10.49;100.00
76011;BME280;64701;43.536;1.478;2024-01-15T03:08:54;99005.25;;;10.48;100.00
76011;BME280;64701;43.536;1.478;2024-01-15T03:11:19;99013.38;;;10.47;100.00
76011;BME280;64701;43.536;1.478;2024-01-15T03:13:44;99019.88;;;10.44;100.00
76011;BME280;64701;43.536;1.478;2024-01-15T03:16:09;99020.06;;;10.43;100.00
76011;BME280;64701;43.536;1.478;2024-01-15T03:18:35;99012.13;;;10.43;100.00
76011;BME280;64701;43.536;1.478;2024-01-15T03:21:00;99008.88;;;10.41;100.00
76011;BME280;64701;43.536;1.478;2024-01-15T03:23:26;99005.63;;;10.39;100.00
76011;BME280;64701;43.536;1.478;2024-01-15T03:25:52;99009.28;;;10.38;100.00
76011;BME280;64701;43.536;1.478;2024-01-15T03:28:17;99002.38;;;10.37;100.00
76011;BME280;64701;43.536;1.478;2024-01-15T03:30:42;98996.03;;;10.31;100.00
76011;BME280;64701;43.536;1.478;2024-01-15T03:33:07;98994.63;;;10.29;100.00
76011;BME280;64701;43.536;1.478;2024-01-15T03:35:33;98988.53;;;10.28;100.00
76011;BME280;64701;43.536;1.478;2024-01-15T03:37:58;98986.06;;;10.27;100.00
76011;BME280;64701;43.536;1.478;2024-01-15T03:40:23;98985.88;;;10.28;100.00
76011;BME280;64701;43.536;1.478;2024-01-15T03:42:48;98984.03;;;10.29;100.00
76011;BME280;64701;43.536;1.478;2024-01-15T03:45:14;98979.38;;;10.31;100.00
76011;BME280;64701;43.536;1.478;2024-01-15T03:47:39;98975.09;;;10.30;100.00
76011;BME280;64701;43.536;1.478;2024-01-15T03:50:05;98965.34;;;10.30;100.00
76011;BME280;64701;43.536;1.478;2024-01-15T03:52:30;98969.38;;;10.33;100.00
76011;BME280;64701;43.536;1.478;2024-01-15T03:54:55;98970.19;;;10.33;100.00
76011;BME280;64701;43.536;1.478;2024-01-15T03:57:21;98958.81;;;10.33;100.00
76011;BME280;64701;43.536;1.478;2024-01-15T03:59:46;98969.00;;;10.36;100.00
76011;BME280;64701;43.536;1.478;2024-01-15T04:02:12;98961.66;;;10.38;100.00
76011;BME280;64701;43.536;1.478;2024-01-15T04:04:40;98959.00;;;10.38;100.00
76011;BME280;64701;43.536;1.478;2024-01-15T04:07:05;98952.69;;;10.39;100.00
76011;BME280;64701;43.536;1.478;2024-01-15T04:09:31;98948.41;;;10.38;100.00
76011;BME280;64701;43.536;1.478;2024-01-15T04:11:56;98949.03;;;10.40;100.00
76011;BME280;64701;43.536;1.478;2024-01-15T04:14:21;98940.91;;;10.41;100.00
76011;BME280;64701;43.536;1.478;2024-01-15T04:16:46;98939.66;;;10.44;100.00
76011;BME280;64701;43.536;1.478;2024-01-15T04:19:12;98932.72;;;10.43;100.00
76011;BME280;64701;43.536;1.478;2024-01-15T04:21:37;98940.28;;;10.46;100.00
76011;BME280;64701;43.536;1.478;2024-01-15T04:24:03;98939.47;;;10.45;100.00
76011;BME280;64701;43.536;1.478;2024-01-15T04:26:28;98934.97;;;10.46;100.00
76011;BME280;64701;43.536;1.478;2024-01-15T04:28:54;98938.44;;;10.46;100.00
76011;BME280;64701;43.536;1.478;2024-01-15T04:31:25;98935.19;;;10.44;100.00
76011;BME280;64701;43.536;1.478;2024-01-15T04:33:52;98930.09;;;10.43;100.00
76011;BME280;64701;43.536;1.478;2024-01-15T04:36:17;98929.31;;;10.42;100.00
76011;BME280;64701;43.536;1.478;2024-01-15T04:38:42;98922.97;;;10.43;100.00
76011;BME280;64701;43.536;1.478;2024-01-15T04:41:12;98918.50;;;10.44;100.00
76011;BME280;64701;43.536;1.478;2024-01-15T04:43:37;98914.00;;;10.44;100.00
76011;BME280;64701;43.536;1.478;2024-01-15T04:46:02;98912.38;;;10.43;100.00
76011;BME280;64701;43.536;1.478;2024-01-15T04:48:28;98903.63;;;10.43;100.00
76011;BME280;64701;43.536;1.478;2024-01-15T04:50:53;98900.97;;;10.43;100.00
76011;BME280;64701;43.536;1.478;2024-01-15T04:53:18;98900.19;;;10.42;100.00
76011;BME280;64701;43.536;1.478;2024-01-15T04:55:44;98896.72;;;10.42;100.00
76011;BME280;64701;43.536;1.478;2024-01-15T04:58:09;98892.44;;;10.41;100.00
76011;BME280;64701;43.536;1.478;2024-01-15T05:00:34;98904.66;;;10.42;100.00
76011;BME280;64701;43.536;1.478;2024-01-15T05:02:59;98899.38;;;10.42;100.00
76011;BME280;64701;43.536;1.478;2024-01-15T05:05:25;98898.56;;;10.41;100.00
76011;BME280;64701;43.536;1.478;2024-01-15T05:07:50;98897.75;;;10.41;100.00
76011;BME280;64701;43.536;1.478;2024-01-15T05:10:16;98892.44;;;10.41;100.00
76011;BME280;64701;43.536;1.478;2024-01-15T05:12:41;98887.16;;;10.41;100.00
76011;BME280;64701;43.536;1.478;2024-01-15T05:15:06;98881.25;;;10.39;100.00
76011;BME280;64701;43.536;1.478;2024-01-15T05:17:32;98886.53;;;10.39;100.00
76011;BME280;64701;43.536;1.478;2024-01-15T05:19:57;98874.31;;;10.38;100.00
76011;BME280;64701;43.536;1.478;2024-01-15T05:22:22;98872.28;;;10.40;100.00
76011;BME280;64701;43.536;1.478;2024-01-15T05:24:49;98877.59;;;10.40;100.00
76011;BME280;64701;43.536;1.478;2024-01-15T05:27:15;98874.94;;;10.40;100.00
76011;BME280;64701;43.536;1.478;2024-01-15T05:29:40;98870.47;;;10.40;100.00
76011;BME280;64701;43.536;1.478;2024-01-15T05:32:05;98872.09;;;10.41;100.00
76011;BME280;64701;43.536;1.478;2024-01-15T05:34:30;98866.78;;;10.41;100.00
76011;BME280;64701;43.536;1.478;2024-01-15T05:36:56;98852.13;;;10.39;100.00
76011;BME280;64701;43.536;1.478;2024-01-15T05:39:21;98848.47;;;10.40;100.00
76011;BME280;64701;43.536;1.478;2024-01-15T05:41:46;98858.25;;;10.39;100.00
76011;BME280;64701;43.536;1.478;2024-01-15T05:44:11;98860.28;;;10.37;100.00
76011;BME280;64701;43.536;1.478;2024-01-15T05:46:37;98860.50;;;10.36;100.00
76011;BME280;64701;43.536;1.478;2024-01-15T05:49:02;98859.69;;;10.35;100.00
76011;BME280;64701;43.536;1.478;2024-01-15T05:51:27;98864.78;;;10.37;100.00
76011;BME280;64701;43.536;1.478;2024-01-15T05:53:52;98868.44;;;10.36;100.00
76011;BME280;64701;43.536;1.478;2024-01-15T05:56:18;98858.66;;;10.36;100.00
76011;BME280;64701;43.536;1.478;2024-01-15T05:58:43;98858.88;;;10.35;100.00
76011;BME280;64701;43.536;1.478;2024-01-15T06:01:08;98859.06;;;10.33;100.00
76011;BME280;64701;43.536;1.478;2024-01-15T06:03:34;98864.34;;;10.33;100.00
76011;BME280;64701;43.536;1.478;2024-01-15T06:05:59;98868.84;;;10.33;100.00
76011;BME280;64701;43.536;1.478;2024-01-15T06:08:25;98867.81;;;10.34;100.00
76011;BME280;64701;43.536;1.478;2024-01-15T06:10:51;98868.63;;;10.34;100.00
76011;BME280;64701;43.536;1.478;2024-01-15T06:13:16;98874.13;;;10.33;100.00
76011;BME280;64701;43.536;1.478;2024-01-15T06:15:42;98861.72;;;10.33;100.00
76011;BME280;64701;43.536;1.478;2024-01-15T06:18:07;98860.91;;;10.33;100.00
76011;BME280;64701;43.536;1.478;2024-01-15T06:20:32;98852.97;;;10.33;100.00
76011;BME280;64701;43.536;1.478;2024-01-15T06:22:58;98853.97;;;10.32;100.00
76011;BME280;64701;43.536;1.478;2024-01-15T06:25:23;98861.91;;;10.32;100.00
76011;BME280;64701;43.536;1.478;2024-01-15T06:27:48;98856.03;;;10.30;100.00
76011;BME280;64701;43.536;1.478;2024-01-15T06:30:13;98859.50;;;10.30;100.00
76011;BME280;64701;43.536;1.478;2024-01-15T06:32:39;98856.03;;;10.30;100.00
76011;BME280;64701;43.536;1.478;2024-01-15T06:35:04;98858.69;;;10.30;100.00
76011;BME280;64701;43.536;1.478;2024-01-15T06:37:29;98858.69;;;10.30;100.00
76011;BME280;64701;43.536;1.478;2024-01-15T06:39:55;98853.38;;;10.30;100.00
76011;BME280;64701;43.536;1.478;2024-01-15T06:42:20;98854.41;;;10.29;100.00
76011;BME280;64701;43.536;1.478;2024-01-15T06:44:47;98852.56;;;10.29;100.00
76011;BME280;64701;43.536;1.478;2024-01-15T06:47:12;98849.09;;;10.29;100.00
76011;BME280;64701;43.536;1.478;2024-01-15T06:49:37;98837.91;;;10.27;100.00
76011;BME280;64701;43.536;1.478;2024-01-15T06:52:02;98839.72;;;10.26;100.00
76011;BME280;64701;43.536;1.478;2024-01-15T06:54:28;98839.97;;;10.25;100.00
76011;BME280;64701;43.536;1.478;2024-01-15T06:56:53;98838.34;;;10.23;100.00
76011;BME280;64701;43.536;1.478;2024-01-15T06:59:18;98839.97;;;10.25;100.00
76011;BME280;64701;43.536;1.478;2024-01-15T07:01:44;98834.25;;;10.21;100.00
76011;BME280;64701;43.536;1.478;2024-01-15T07:04:09;98838.72;;;10.20;100.00
76011;BME280;64701;43.536;1.478;2024-01-15T07:06:35;98833.63;;;10.19;100.00
76011;BME280;64701;43.536;1.478;2024-01-15T07:09:00;98832.03;;;10.18;100.00
76011;BME280;64701;43.536;1.478;2024-01-15T07:11:25;98823.66;;;10.14;100.00
76011;BME280;64701;43.536;1.478;2024-01-15T07:13:51;98823.84;;;10.13;100.00
76011;BME280;64701;43.536;1.478;2024-01-15T07:16:16;98820.41;;;10.12;100.00
76011;BME280;64701;43.536;1.478;2024-01-15T07:18:41;98824.06;;;10.11;100.00
76011;BME280;64701;43.536;1.478;2024-01-15T07:21:06;98820.41;;;10.12;100.00
76011;BME280;64701;43.536;1.478;2024-01-15T07:23:32;98825.09;;;10.10;100.00
76011;BME280;64701;43.536;1.478;2024-01-15T07:25:57;98828.53;;;10.11;100.00
76011;BME280;64701;43.536;1.478;2024-01-15T07:28:22;98825.09;;;10.10;100.00
76011;BME280;64701;43.536;1.478;2024-01-15T07:30:47;98820.81;;;10.09;100.00
76011;BME280;64701;43.536;1.478;2024-01-15T07:33:13;98814.50;;;10.10;100.00
76011;BME280;64701;43.536;1.478;2024-01-15T07:35:38;98818.78;;;10.11;100.00
76011;BME280;64701;43.536;1.478;2024-01-15T07:38:03;98819.59;;;10.12;100.00
76011;BME280;64701;43.536;1.478;2024-01-15T07:40:29;98823.06;;;10.12;100.00
76011;BME280;64701;43.536;1.478;2024-01-15T07:42:54;98829.38;;;10.11;100.00
76011;BME280;64701;43.536;1.478;2024-01-15T07:45:19;98820.19;;;10.14;100.00
76011;BME280;64701;43.536;1.478;2024-01-15T07:47:44;98826.28;;;10.14;100.00
76011;BME280;64701;43.536;1.478;2024-01-15T07:50:10;98823.66;;;10.14;100.00
76011;BME280;64701;43.536;1.478;2024-01-15T07:52:35;98822.81;;;10.14;100.00
76011;BME280;64701;43.536;1.478;2024-01-15T07:55:01;98818.16;;;10.09;100.00
76011;BME280;64701;43.536;1.478;2024-01-15T07:57:28;98824.28;;;10.03;100.00
76011;BME280;64701;43.536;1.478;2024-01-15T07:59:53;98831.19;;;10.04;100.00
76011;BME280;64701;43.536;1.478;2024-01-15T08:02:19;98830.19;;;10.05;100.00
76011;BME280;64701;43.536;1.478;2024-01-15T08:04:44;98829.97;;;10.07;100.00
76011;BME280;64701;43.536;1.478;2024-01-15T08:07:10;98826.09;;;10.09;100.00
76011;BME280;64701;43.536;1.478;2024-01-15T08:09:35;98831.38;;;10.09;100.00
76011;BME280;64701;43.536;1.478;2024-01-15T08:12:00;98827.72;;;10.10;100.00
76011;BME280;64701;43.536;1.478;2024-01-15T08:14:25;98838.31;;;10.10;100.00
76011;BME280;64701;43.536;1.478;2024-01-15T08:16:51;98831.00;;;10.12;100.00
76011;BME280;64701;43.536;1.478;2024-01-15T08:19:16;98837.69;;;10.15;100.00
76011;BME280;64701;43.536;1.478;2024-01-15T08:21:41;98841.78;;;10.17;100.00
76011;BME280;64701;43.536;1.478;2024-01-15T08:24:07;98844.22;;;10.19;100.00
76011;BME280;64701;43.536;1.478;2024-01-15T08:26:32;98858.47;;;10.25;100.00
76011;BME280;64701;43.536;1.478;2024-01-15T08:28:57;98851.94;;;10.27;100.00
76011;BME280;64701;43.536;1.478;2024-01-15T08:31:22;98856.44;;;10.27;100.00
76011;BME280;64701;43.536;1.478;2024-01-15T08:33:48;98867.63;;;10.29;100.00
76011;BME280;64701;43.536;1.478;2024-01-15T08:36:13;98865.59;;;10.31;100.00
76011;BME280;64701;43.536;1.478;2024-01-15T08:38:38;98847.47;;;10.34;100.00
76011;BME280;64701;43.536;1.478;2024-01-15T08:41:04;98851.75;;;10.35;100.00
76011;BME280;64701;43.536;1.478;2024-01-15T08:43:29;98851.53;;;10.37;100.00
76011;BME280;64701;43.536;1.478;2024-01-15T08:45:56;98858.25;;;10.39;100.00
76011;BME280;64701;43.536;1.478;2024-01-15T08:48:21;98848.84;;;10.43;100.00
76011;BME280;64701;43.536;1.478;2024-01-15T08:50:46;98858.22;;;10.46;100.00
76011;BME280;64701;43.536;1.478;2024-01-15T08:53:12;98860.44;;;10.49;100.00
76011;BME280;64701;43.536;1.478;2024-01-15T08:55:37;98860.88;;;10.52;100.00
76011;BME280;64701;43.536;1.478;2024-01-15T08:58:03;98850.91;;;10.54;100.00
76011;BME280;64701;43.536;1.478;2024-01-15T09:00:28;98848.44;;;10.53;100.00
76011;BME280;64701;43.536;1.478;2024-01-15T09:02:54;98850.06;;;10.54;100.00
76011;BME280;64701;43.536;1.478;2024-01-15T09:05:19;98851.69;;;10.55;100.00
76011;BME280;64701;43.536;1.478;2024-01-15T09:07:44;98848.03;;;10.56;100.00
76011;BME280;64701;43.536;1.478;2024-01-15T09:10:11;98861.25;;;10.56;100.00
76011;BME280;64701;43.536;1.478;2024-01-15T09:12:36;98860.25;;;10.57;100.00
76011;BME280;64701;43.536;1.478;2024-01-15T09:15:01;98856.56;;;10.58;100.00
76011;BME280;64701;43.536;1.478;2024-01-15T09:17:29;98866.16;;;10.59;100.00
76011;BME280;64701;43.536;1.478;2024-01-15T09:19:54;98853.31;;;10.56;100.00
76011;BME280;64701;43.536;1.478;2024-01-15T09:22:20;98865.53;;;10.57;100.00
76011;BME280;64701;43.536;1.478;2024-01-15T09:24:46;98863.50;;;10.59;100.00
76011;BME280;64701;43.536;1.478;2024-01-15T09:27:11;98872.03;;;10.61;100.00
76011;BME280;64701;43.536;1.478;2024-01-15T09:29:36;98871.63;;;10.64;100.00
76011;BME280;64701;43.536;1.478;2024-01-15T09:32:05;98876.50;;;10.67;100.00
76011;BME280;64701;43.536;1.478;2024-01-15T09:34:30;98871.63;;;10.71;100.00
76011;BME280;64701;43.536;1.478;2024-01-15T09:36:55;98872.19;;;10.73;100.00
76011;BME280;64701;43.536;1.478;2024-01-15T09:39:20;98871.19;;;10.74;100.00
76011;BME280;64701;43.536;1.478;2024-01-15T09:41:48;98877.09;;;10.76;100.00
76011;BME280;64701;43.536;1.478;2024-01-15T09:44:14;98878.09;;;10.75;100.00
76011;BME280;64701;43.536;1.478;2024-01-15T09:46:40;98878.09;;;10.75;100.00
76011;BME280;64701;43.536;1.478;2024-01-15T09:49:06;98873.25;;;10.72;100.00
76011;BME280;64701;43.536;1.478;2024-01-15T09:51:32;98864.50;;;10.64;100.00
76011;BME280;64701;43.536;1.478;2024-01-15T09:53:57;98860.22;;;10.63;100.00
76011;BME280;64701;43.536;1.478;2024-01-15T09:56:23;98856.56;;;10.64;100.00
76011;BME280;64701;43.536;1.478;2024-01-15T09:58:48;98855.75;;;10.64;100.00
76011;BME280;64701;43.536;1.478;2024-01-15T10:01:14;98859.78;;;10.67;100.00
76011;BME280;64701;43.536;1.478;2024-01-15T10:03:41;98866.34;;;10.64;100.00
76011;BME280;64701;43.536;1.478;2024-01-15T10:06:07;98877.31;;;10.61;100.00
76011;BME280;64701;43.536;1.478;2024-01-15T10:08:33;98872.44;;;10.64;100.00
76011;BME280;64701;43.536;1.478;2024-01-15T10:11:00;98869.59;;;10.66;100.00
76011;BME280;64701;43.536;1.478;2024-01-15T10:13:25;98869.59;;;10.66;100.00
76011;BME280;64701;43.536;1.478;2024-01-15T10:15:50;98872.81;;;10.68;100.00
76011;BME280;64701;43.536;1.478;2024-01-15T10:18:16;98872.63;;;10.70;100.00
76011;BME280;64701;43.536;1.478;2024-01-15T10:20:41;98885.25;;;10.74;100.00
76011;BME280;64701;43.536;1.478;2024-01-15T10:23:07;98873.44;;;10.77;100.00
76011;BME280;64701;43.536;1.478;2024-01-15T10:25:32;98872.19;;;10.79;100.00
76011;BME280;64701;43.536;1.478;2024-01-15T10:28:01;98871.78;;;10.82;100.00
76011;BME280;64701;43.536;1.478;2024-01-15T10:30:27;98874.59;;;10.87;100.00
76011;BME280;64701;43.536;1.478;2024-01-15T10:33:02;98871.75;;;10.89;100.00
76011;BME280;64701;43.536;1.478;2024-01-15T10:35:32;98869.50;;;10.92;100.00
76011;BME280;64701;43.536;1.478;2024-01-15T10:37:58;98874.16;;;10.97;100.00
76011;BME280;64701;43.536;1.478;2024-01-15T10:40:23;98862.34;;;10.99;100.00
76011;BME280;64701;43.536;1.478;2024-01-15T10:42:48;98862.94;;;11.01;100.00
76011;BME280;64701;43.536;1.478;2024-01-15T10:45:14;98866.19;;;11.03;100.00
76011;BME280;64701;43.536;1.478;2024-01-15T10:47:40;98864.16;;;11.05;100.00
76011;BME280;64701;43.536;1.478;2024-01-15T10:50:06;98853.56;;;11.05;100.00
76011;BME280;64701;43.536;1.478;2024-01-15T10:52:33;98838.47;;;11.06;100.00
76011;BME280;64701;43.536;1.478;2024-01-15T10:54:59;98839.13;;;11.01;100.00
76011;BME280;64701;43.536;1.478;2024-01-15T10:57:25;98849.28;;;11.04;100.00
76011;BME280;64701;43.536;1.478;2024-01-15T10:59:51;98837.66;;;11.05;100.00
76011;BME280;64701;43.536;1.478;2024-01-15T11:02:16;98837.22;;;11.09;100.00
76011;BME280;64701;43.536;1.478;2024-01-15T11:04:42;98837.22;;;11.09;100.00
76011;BME280;64701;43.536;1.478;2024-01-15T11:07:07;98826.22;;;11.12;100.00
76011;BME280;64701;43.536;1.478;2024-01-15T11:09:32;98822.38;;;11.08;100.00
76011;BME280;64701;43.536;1.478;2024-01-15T11:12:07;98828.50;;;11.08;100.00
76011;BME280;64701;43.536;1.478;2024-01-15T11:14:46;98827.84;;;11.13;100.00
76011;BME280;64701;43.536;1.478;2024-01-15T11:17:12;98831.06;;;11.15;100.00
76011;BME280;64701;43.536;1.478;2024-01-15T11:22:07;98827.41;;;11.16;100.00
76011;BME280;64701;43.536;1.478;2024-01-15T11:24:36;98818.22;;;11.18;100.00
76011;BME280;64701;43.536;1.478;2024-01-15T11:27:02;98815.59;;;11.18;100.00
76011;BME280;64701;43.536;1.478;2024-01-15T11:29:29;98813.31;;;11.22;100.00
76011;BME280;64701;43.536;1.478;2024-01-15T11:34:20;98809.41;;;11.31;100.00
76011;BME280;64701;43.536;1.478;2024-01-15T11:42:07;98794.69;;;11.35;100.00
76011;BME280;64701;43.536;1.478;2024-01-15T11:44:32;98796.31;;;11.36;100.00
76011;BME280;64701;43.536;1.478;2024-01-15T11:47:01;98797.34;;;11.35;100.00
76011;BME280;64701;43.536;1.478;2024-01-15T11:52:05;98795.88;;;11.39;100.00
76011;BME280;64701;43.536;1.478;2024-01-15T11:54:31;98797.09;;;11.43;100.00
76011;BME280;64701;43.536;1.478;2024-01-15T11:56:58;98795.81;;;11.45;100.00
76011;BME280;64701;43.536;1.478;2024-01-15T11:59:25;98792.75;;;11.49;100.00
76011;BME280;64701;43.536;1.478;2024-01-15T12:01:50;98785.19;;;11.52;100.00
76011;BME280;64701;43.536;1.478;2024-01-15T12:04:15;98792.72;;;11.55;100.00
76011;BME280;64701;43.536;1.478;2024-01-15T12:06:42;98791.44;;;11.58;100.00
76011;BME280;64701;43.536;1.478;2024-01-15T12:09:07;98791.84;;;11.61;100.00
76011;BME280;64701;43.536;1.478;2024-01-15T12:11:33;98779.97;;;11.64;100.00
76011;BME280;64701;43.536;1.478;2024-01-15T12:14:01;98776.91;;;11.67;100.00
76011;BME280;64701;43.536;1.478;2024-01-15T12:16:26;98770.94;;;11.71;100.00
76011;BME280;64701;43.536;1.478;2024-01-15T12:18:52;98761.56;;;11.75;100.00
76011;BME280;64701;43.536;1.478;2024-01-15T12:21:17;98766.19;;;11.80;100.00
76011;BME280;64701;43.536;1.478;2024-01-15T12:23:45;98764.53;;;11.85;100.00
76011;BME280;64701;43.536;1.478;2024-01-15T12:26:10;98750.97;;;11.94;100.00
76011;BME280;64701;43.536;1.478;2024-01-15T12:28:36;98746.84;;;11.98;100.00
76011;BME280;64701;43.536;1.478;2024-01-15T12:31:01;98752.34;;;12.03;100.00
76011;BME280;64701;43.536;1.478;2024-01-15T12:33:30;98748.81;;;12.09;100.00
76011;BME280;64701;43.536;1.478;2024-01-15T12:35:55;98748.34;;;12.12;100.00
76011;BME280;64701;43.536;1.478;2024-01-15T12:38:20;98748.34;;;12.12;100.00
76011;BME280;64701;43.536;1.478;2024-01-15T12:40:46;98743.19;;;12.17;100.00
76011;BME280;64701;43.536;1.478;2024-01-15T12:43:11;98742.75;;;12.20;100.00
76011;BME280;64701;43.536;1.478;2024-01-15T12:45:37;98735.63;;;12.20;100.00
76011;BME280;64701;43.536;1.478;2024-01-15T12:48:03;98732.72;;;12.22;100.00
76011;BME280;64701;43.536;1.478;2024-01-15T12:50:29;98723.72;;;12.23;100.00
76011;BME280;64701;43.536;1.478;2024-01-15T12:52:54;98730.66;;;12.24;100.00
76011;BME280;64701;43.536;1.478;2024-01-15T12:55:19;98731.47;;;12.24;100.00
76011;BME280;64701;43.536;1.478;2024-01-15T12:57:45;98726.16;;;12.24;100.00